サンホセ/フアン・サンタ・マリア の空港の天気 - METARとTAF

フアン・サンタ・マリア国際空港 ( MROC / SJO ) - コスタリカ サンホセ
飛行場実況気象(Metar)
観測時間04/14 22:00 CST (04/15 04:00 UTC)
風向・風速北北東 3m/s
視程10km以上
天気現象弱い雨
少しの雲 雲底高度 610m
全天を覆う雲 雲底高度 3660m
気温21℃
湿度100%
気圧1017hPa
METARMROC 150400Z 03005KT 9999 -RA FEW020 OVC120 21/21 A3002 NOSIG
過去の天気等 Google飛行場航空写真 Wunderground天気予報

過去48時間のMETAR

飛行場予報(TAF)
発表時間: 4/14 17:00 CST (4/14 23:00 UTC)
予報対象時間: 14日18時 CST ~ 15日18時 CST
風向・風速東南東 4m/s
視程10km以上
全天の4割程度の雲 雲底高度 1220m
15日13時 CST ~ 15日17時 CST に一時的に
風向・風速西南西 4m/s
天気現象
全天の8割程度の雲 雲底高度 910m
MROC 142300Z 1500/1524 11008KT 9999 SCT040 TX28/1518Z TN20/1511Z
TEMPO 1519/1523 24007KT RA BKN030